WIF1W ENBO-ENTC

Flight info

Callsign WIF1W
Flight time 0h 41m
Altitude 23000
Route PENNO DCT ATWEG
Aircraft DH8D/M-SDE2E3FGRY/H

Departure

Time 2026-04-26 08:24
Airport Bodø Airport (ENBO)

Arrival

Time 2026-04-26 09:05
Airport Tromsø Airport (ENTC)
Time Latitude Longitude Altitude Speed Heading
2026-04-26 07:40 67.27235 14.36927 52 ft 0 kts 300°
2026-04-26 08:10 67.27235 14.36926 52 ft 0 kts 300°
2026-04-26 08:16 67.27236 14.36925 52 ft 0 kts 300°
2026-04-26 08:17 67.27231 14.36949 52 ft 2 kts 298°
2026-04-26 08:17 67.27224 14.36983 53 ft 2 kts 295°
2026-04-26 08:17 67.27218 14.37018 53 ft 2 kts 292°
2026-04-26 08:18 67.27215 14.37036 53 ft 0 kts 291°
2026-04-26 08:20 67.27216 14.37035 53 ft 0 kts 291°
2026-04-26 08:20 67.27217 14.37026 53 ft 1 kts 309°
2026-04-26 08:20 67.27222 14.37071 53 ft 6 kts 120°
2026-04-26 08:20 67.27186 14.37165 54 ft 7 kts 153°
2026-04-26 08:21 67.27138 14.37218 56 ft 6 kts 161°
2026-04-26 08:21 67.27113 14.37296 58 ft 6 kts 92°
2026-04-26 08:21 67.27122 14.37408 59 ft 10 kts 76°
2026-04-26 08:21 67.27149 14.37726 61 ft 20 kts 78°
2026-04-26 08:22 67.27161 14.38061 62 ft 15 kts 88°
2026-04-26 08:22 67.27155 14.38312 62 ft 11 kts 113°
2026-04-26 08:22 67.27100 14.38392 61 ft 8 kts 171°
2026-04-26 08:22 67.27070 14.38314 61 ft 0 kts 257°
2026-04-26 08:23 67.27048 14.38032 64 ft 55 kts 257°
2026-04-26 08:23 67.26905 14.36344 60 ft 130 kts 259°
2026-04-26 08:23 67.26704 14.33775 321 ft 156 kts 263°
2026-04-26 08:24 67.26521 14.30928 883 ft 168 kts 271°
2026-04-26 08:24 67.26923 14.28251 1341 ft 176 kts 309°
2026-04-26 08:24 67.27829 14.26275 2207 ft 169 kts 332°
2026-04-26 08:24 67.28850 14.24957 3050 ft 167 kts 333°
2026-04-26 08:25 67.29874 14.23628 3772 ft 169 kts 333°
2026-04-26 08:25 67.30834 14.22417 4386 ft 167 kts 334°
2026-04-26 08:25 67.31937 14.21049 4957 ft 170 kts 334°
2026-04-26 08:25 67.33003 14.19749 5538 ft 172 kts 335°
2026-04-26 08:26 67.34087 14.18440 6139 ft 173 kts 335°
2026-04-26 08:26 67.35058 14.17615 6566 ft 179 kts 354°
2026-04-26 08:26 67.36500 14.18910 6524 ft 219 kts 31°
2026-04-26 08:26 67.37756 14.21350 6878 ft 230 kts 33°
2026-04-26 08:27 67.39035 14.23886 7378 ft 233 kts 34°
2026-04-26 08:27 67.40323 14.26445 7901 ft 236 kts 34°
2026-04-26 08:27 67.41609 14.28997 8413 ft 237 kts 33°
2026-04-26 08:27 67.42937 14.31624 8930 ft 239 kts 33°
2026-04-26 08:28 67.44251 14.34221 9462 ft 242 kts 33°
2026-04-26 08:28 67.45599 14.36880 10008 ft 244 kts 34°
2026-04-26 08:28 67.46943 14.39531 10543 ft 245 kts 34°
2026-04-26 08:28 67.48318 14.42245 11067 ft 248 kts 34°
2026-04-26 08:29 67.49695 14.44966 11573 ft 250 kts 34°
2026-04-26 08:29 67.51072 14.47690 12104 ft 251 kts 34°
2026-04-26 08:29 67.52456 14.50431 12610 ft 253 kts 34°
2026-04-26 08:29 67.53832 14.53047 13086 ft 254 kts 32°
2026-04-26 08:30 67.55307 14.55698 13599 ft 256 kts 31°
2026-04-26 08:30 67.56766 14.58305 14132 ft 258 kts 31°
2026-04-26 08:30 67.58224 14.60906 14641 ft 258 kts 31°
2026-04-26 08:30 67.59721 14.63575 15080 ft 263 kts 31°
2026-04-26 08:31 67.61224 14.66253 15596 ft 264 kts 32°
2026-04-26 08:31 67.62658 14.68812 16066 ft 265 kts 31°
2026-04-26 08:31 67.64230 14.71618 16552 ft 267 kts 31°
2026-04-26 08:31 67.65766 14.74363 17054 ft 268 kts 31°
2026-04-26 08:32 67.67321 14.77142 17495 ft 270 kts 31°
2026-04-26 08:32 67.68826 14.79839 17918 ft 270 kts 31°
2026-04-26 08:32 67.70392 14.82644 18235 ft 274 kts 31°
2026-04-26 08:32 67.71958 14.85455 18588 ft 277 kts 31°
2026-04-26 08:33 67.73635 14.88462 18343 ft 300 kts 31°
2026-04-26 08:33 67.75369 14.91582 18455 ft 306 kts 32°
2026-04-26 08:33 67.77137 14.94777 18755 ft 306 kts 31°
2026-04-26 08:33 67.78887 14.97944 19043 ft 307 kts 31°
2026-04-26 08:34 67.80633 15.01107 19288 ft 308 kts 31°
2026-04-26 08:34 67.82333 15.04195 19476 ft 308 kts 31°
2026-04-26 08:34 67.84073 15.07357 19551 ft 310 kts 31°
2026-04-26 08:34 67.85867 15.10628 19752 ft 311 kts 31°
2026-04-26 08:35 67.87661 15.13901 19997 ft 312 kts 31°
2026-04-26 08:35 67.89441 15.17156 20207 ft 311 kts 31°
2026-04-26 08:35 67.91224 15.20421 20304 ft 314 kts 31°
2026-04-26 08:35 67.92997 15.23673 20484 ft 312 kts 30°
2026-04-26 08:36 67.94795 15.26977 20600 ft 314 kts 30°
2026-04-26 08:36 67.96595 15.30295 20699 ft 315 kts 31°
2026-04-26 08:36 67.98413 15.33650 20753 ft 316 kts 31°
2026-04-26 08:36 68.00222 15.36996 20879 ft 314 kts 31°
2026-04-26 08:37 68.02000 15.40293 20945 ft 316 kts 31°
2026-04-26 08:37 68.03816 15.43664 21036 ft 315 kts 31°
2026-04-26 08:37 68.05610 15.47000 21139 ft 315 kts 31°
2026-04-26 08:37 68.07327 15.50216 22081 ft 288 kts 30°
2026-04-26 08:38 68.08944 15.53243 22499 ft 283 kts 29°
2026-04-26 08:38 68.10552 15.56250 22750 ft 282 kts 29°
2026-04-26 08:38 68.12148 15.59237 22950 ft 283 kts 29°
2026-04-26 08:38 68.13751 15.62237 23120 ft 285 kts 29°
2026-04-26 08:39 68.15403 15.65334 23044 ft 295 kts 30°
2026-04-26 08:39 68.17113 15.68545 22986 ft 303 kts 31°
2026-04-26 08:39 68.18848 15.71818 22965 ft 308 kts 31°
2026-04-26 08:39 68.20616 15.75157 22959 ft 312 kts 31°
2026-04-26 08:40 68.22377 15.78493 22964 ft 315 kts 31°
2026-04-26 08:40 68.24192 15.81940 22950 ft 317 kts 31°
2026-04-26 08:40 68.25989 15.85359 22942 ft 320 kts 31°
2026-04-26 08:40 68.27799 15.88808 22937 ft 322 kts 31°
2026-04-26 08:41 68.29639 15.92324 22916 ft 324 kts 31°
2026-04-26 08:41 68.31490 15.95869 22922 ft 325 kts 32°
2026-04-26 08:41 68.33313 15.99363 22915 ft 325 kts 32°
2026-04-26 08:41 68.35168 16.02928 22906 ft 325 kts 32°
2026-04-26 08:42 68.37013 16.06482 22905 ft 326 kts 32°
2026-04-26 08:42 68.38841 16.10008 22899 ft 326 kts 32°
2026-04-26 08:42 68.40691 16.13583 22906 ft 327 kts 32°
2026-04-26 08:42 68.42559 16.17201 22899 ft 328 kts 32°
2026-04-26 08:43 68.44397 16.20770 22899 ft 328 kts 32°
2026-04-26 08:43 68.46196 16.24273 22947 ft 325 kts 32°
2026-04-26 08:43 68.48016 16.27824 22902 ft 325 kts 32°
2026-04-26 08:43 68.49842 16.31386 22897 ft 326 kts 32°
2026-04-26 08:44 68.51661 16.34944 22901 ft 325 kts 32°
2026-04-26 08:44 68.53468 16.38487 22911 ft 324 kts 32°
2026-04-26 08:44 68.55296 16.42076 22922 ft 324 kts 32°
2026-04-26 08:44 68.57096 16.45620 22930 ft 324 kts 32°
2026-04-26 08:45 68.58888 16.49154 22931 ft 322 kts 32°
2026-04-26 08:45 68.60698 16.52731 22932 ft 322 kts 32°
2026-04-26 08:45 68.62494 16.56287 22924 ft 323 kts 32°
2026-04-26 08:45 68.64338 16.59948 22930 ft 323 kts 32°
2026-04-26 08:46 68.66159 16.63569 22933 ft 323 kts 32°
2026-04-26 08:46 68.67982 16.67199 22748 ft 327 kts 33°
2026-04-26 08:46 68.69791 16.70807 22428 ft 318 kts 33°
2026-04-26 08:46 68.71571 16.74359 22075 ft 310 kts 33°
2026-04-26 08:47 68.73285 16.77788 21722 ft 303 kts 33°
2026-04-26 08:47 68.74962 16.81150 21374 ft 297 kts 33°
2026-04-26 08:47 68.76614 16.84470 21031 ft 291 kts 33°
2026-04-26 08:47 68.78230 16.87724 20696 ft 286 kts 33°
2026-04-26 08:48 68.79832 16.90956 20361 ft 281 kts 33°
2026-04-26 08:48 68.81361 16.94048 20046 ft 277 kts 33°
2026-04-26 08:48 68.82899 16.97162 19723 ft 273 kts 33°
2026-04-26 08:48 68.84403 17.00214 19405 ft 272 kts 33°
2026-04-26 08:49 68.85966 17.03395 19088 ft 278 kts 33°
2026-04-26 08:49 68.87540 17.06606 18766 ft 284 kts 33°
2026-04-26 08:49 68.89059 17.09709 18443 ft 287 kts 33°
2026-04-26 08:49 68.90668 17.13001 18114 ft 292 kts 33°
2026-04-26 08:50 68.92330 17.16409 17764 ft 297 kts 33°
2026-04-26 08:50 68.93993 17.19824 17410 ft 301 kts 33°
2026-04-26 08:50 68.95672 17.23280 17056 ft 304 kts 33°
2026-04-26 08:50 68.97321 17.26681 16709 ft 306 kts 33°
2026-04-26 08:51 69.00766 17.33806 15968 ft 310 kts 33°
2026-04-26 08:51 69.02501 17.37404 15599 ft 311 kts 33°
2026-04-26 08:51 69.04215 17.40965 15233 ft 312 kts 33°
2026-04-26 08:52 69.05949 17.44578 14863 ft 312 kts 33°
2026-04-26 08:52 69.07686 17.48200 14495 ft 313 kts 33°
2026-04-26 08:52 69.09408 17.51800 14120 ft 308 kts 34°
2026-04-26 08:52 69.11090 17.55328 13739 ft 296 kts 33°
2026-04-26 08:53 69.12700 17.58692 13393 ft 283 kts 32°
2026-04-26 08:53 69.14256 17.61961 13078 ft 279 kts 33°
2026-04-26 08:53 69.15812 17.65238 12763 ft 284 kts 34°
2026-04-26 08:53 69.17404 17.68597 12427 ft 290 kts 34°
2026-04-26 08:54 69.19023 17.72020 12081 ft 293 kts 34°
2026-04-26 08:54 69.20652 17.75470 11735 ft 294 kts 34°
2026-04-26 08:54 69.22268 17.78899 11391 ft 292 kts 34°
2026-04-26 08:54 69.23860 17.82285 11055 ft 287 kts 34°
2026-04-26 08:55 69.25429 17.85629 10732 ft 284 kts 34°
2026-04-26 08:55 69.27003 17.88998 10431 ft 281 kts 34°
2026-04-26 08:55 69.28576 17.92066 10206 ft 274 kts 24°
2026-04-26 08:55 69.30400 17.93320 9931 ft 267 kts
2026-04-26 08:56 69.32210 17.94043 9674 ft 267 kts 17°
2026-04-26 08:56 69.33766 17.96880 9397 ft 270 kts 39°
2026-04-26 08:56 69.35165 18.00421 9093 ft 270 kts 37°
2026-04-26 08:56 69.36617 18.03852 8433 ft 276 kts 37°
2026-04-26 08:57 69.38055 18.07308 8048 ft 261 kts 37°
2026-04-26 08:57 69.39367 18.10528 7729 ft 247 kts 37°
2026-04-26 08:57 69.40627 18.13642 7456 ft 230 kts 37°
2026-04-26 08:57 69.41785 18.16539 7203 ft 216 kts 38°
2026-04-26 08:58 69.42895 18.19347 7000 ft 215 kts 38°
2026-04-26 08:58 69.43999 18.22161 6769 ft 214 kts 38°
2026-04-26 08:58 69.45101 18.24989 6584 ft 213 kts 38°
2026-04-26 08:58 69.46197 18.27806 6366 ft 212 kts 38°
2026-04-26 08:59 69.47294 18.30636 6130 ft 212 kts 38°
2026-04-26 08:59 69.48378 18.33446 5889 ft 212 kts 38°
2026-04-26 08:59 69.49459 18.36259 5644 ft 213 kts 38°
2026-04-26 08:59 69.50562 18.39136 5390 ft 214 kts 38°
2026-04-26 09:00 69.51651 18.41982 5141 ft 215 kts 39°
2026-04-26 09:00 69.52671 18.45147 4869 ft 219 kts 55°
2026-04-26 09:00 69.53245 18.49140 4628 ft 221 kts 68°
2026-04-26 09:00 69.53723 18.53287 4377 ft 221 kts 68°
2026-04-26 09:01 69.54202 18.57478 4134 ft 222 kts 68°
2026-04-26 09:01 69.54684 18.61679 3871 ft 217 kts 68°
2026-04-26 09:01 69.55141 18.65636 3631 ft 203 kts 69°
2026-04-26 09:01 69.55568 18.69335 3411 ft 192 kts 68°
2026-04-26 09:02 69.55981 18.72893 3185 ft 190 kts 67°
2026-04-26 09:02 69.56530 18.76312 2874 ft 190 kts 57°
2026-04-26 09:02 69.57267 18.79397 2579 ft 188 kts 48°
2026-04-26 09:02 69.58164 18.82109 2281 ft 186 kts 39°
2026-04-26 09:03 69.59172 18.84342 1988 ft 183 kts 30°
2026-04-26 09:03 69.60252 18.86050 1698 ft 174 kts 21°
2026-04-26 09:03 69.61331 18.87209 1437 ft 157 kts 14°
2026-04-26 09:03 69.62376 18.87936 1202 ft 151 kts 11°
2026-04-26 09:04 69.63356 18.88589 1094 ft 138 kts 12°
2026-04-26 09:04 69.64234 18.89182 1006 ft 126 kts 11°
2026-04-26 09:04 69.65089 18.89649 543 ft 131 kts 11°
2026-04-26 09:04 69.65968 18.90283 364 ft 130 kts 13°
2026-04-26 09:05 69.66858 18.90891 149 ft 131 kts 13°
2026-04-26 09:05 69.67702 18.91471 -2 ft 114 kts 13°
2026-04-26 09:05 69.68196 18.91798 3 ft 33 kts 14°
2026-04-26 09:05 69.68310 18.91797 -1 ft 13 kts 299°
2026-04-26 09:06 69.68328 18.91595 -5 ft 10 kts 279°
2026-04-26 09:06 69.68307 18.91483 -5 ft 6 kts 198°
2026-04-26 09:06 69.68263 18.91453 -5 ft 5 kts 192°
2026-04-26 09:06 69.68228 18.91432 -4 ft 6 kts 192°
2026-04-26 09:07 69.68156 18.91385 -2 ft 10 kts 193°
2026-04-26 09:07 69.68083 18.91337 -2 ft 10 kts 193°
2026-04-26 09:07 69.68012 18.91289 -3 ft 10 kts 193°
2026-04-26 09:07 69.67960 18.91178 -6 ft 10 kts 261°
2026-04-26 09:08 69.67972 18.91004 -10 ft 6 kts 283°
2026-04-26 09:08 69.67977 18.90938 -11 ft 0 kts 283°
2026-04-26 09:08 69.67978 18.90933 -11 ft 0 kts 283°